sensor_id;sensor_type;location;lat;lon;timestamp;temperature;humidity
16388;DHT22;8303;53.446;9.988;2023-04-06T04:46:12;-1.00;99.90
16388;DHT22;8303;53.446;9.988;2023-04-06T04:48:39;-1.00;99.90
16388;DHT22;8303;53.446;9.988;2023-04-06T04:51:08;-0.90;99.90
16388;DHT22;8303;53.446;9.988;2023-04-06T04:53:35;-0.90;99.90
16388;DHT22;8303;53.446;9.988;2023-04-06T04:56:03;-0.90;99.90
16388;DHT22;8303;53.446;9.988;2023-04-06T04:58:34;-0.90;99.90
16388;DHT22;8303;53.446;9.988;2023-04-06T05:01:01;-0.90;99.90
16388;DHT22;8303;53.446;9.988;2023-04-06T05:03:31;-0.80;99.90
16388;DHT22;8303;53.446;9.988;2023-04-06T05:06:00;-0.70;99.90
16388;DHT22;8303;53.446;9.988;2023-04-06T05:08:27;-0.70;99.90
16388;DHT22;8303;53.446;9.988;2023-04-06T05:10:55;-0.80;99.90
16388;DHT22;8303;53.446;9.988;2023-04-06T05:13:23;-0.70;99.90
16388;DHT22;8303;53.446;9.988;2023-04-06T05:15:54;-0.70;99.90
16388;DHT22;8303;53.446;9.988;2023-04-06T05:18:24;-0.60;99.90
16388;DHT22;8303;53.446;9.988;2023-04-06T05:20:53;-0.60;99.90
16388;DHT22;8303;53.446;9.988;2023-04-06T05:23:21;-0.50;99.90
16388;DHT22;8303;53.446;9.988;2023-04-06T05:25:49;-0.40;99.90
16388;DHT22;8303;53.446;9.988;2023-04-06T05:28:16;-0.40;99.90
16388;DHT22;8303;53.446;9.988;2023-04-06T05:30:45;-0.40;99.90
16388;DHT22;8303;53.446;9.988;2023-04-06T05:33:16;-0.40;99.90
16388;DHT22;8303;53.446;9.988;2023-04-06T05:35:43;-0.30;99.90
16388;DHT22;8303;53.446;9.988;2023-04-06T05:38:12;-0.30;99.90
16388;DHT22;8303;53.446;9.988;2023-04-06T05:40:42;-0.20;99.90
16388;DHT22;8303;53.446;9.988;2023-04-06T05:43:10;-0.10;99.90
16388;DHT22;8303;53.446;9.988;2023-04-06T05:45:37;-0.10;99.90
16388;DHT22;8303;53.446;9.988;2023-04-06T05:48:05;0.00;99.90
16388;DHT22;8303;53.446;9.988;2023-04-06T05:50:34;0.00;99.90
16388;DHT22;8303;53.446;9.988;2023-04-06T05:53:01;0.10;99.90
16388;DHT22;8303;53.446;9.988;2023-04-06T05:55:30;0.30;99.90
16388;DHT22;8303;53.446;9.988;2023-04-06T05:57:59;0.40;99.90
16388;DHT22;8303;53.446;9.988;2023-04-06T06:00:27;0.50;99.90
16388;DHT22;8303;53.446;9.988;2023-04-06T06:02:54;0.50;99.90
16388;DHT22;8303;53.446;9.988;2023-04-06T06:05:22;0.60;99.90
16388;DHT22;8303;53.446;9.988;2023-04-06T06:07:52;0.60;99.90
16388;DHT22;8303;53.446;9.988;2023-04-06T06:10:19;0.60;90.70
16388;DHT22;8303;53.446;9.988;2023-04-06T06:12:50;0.70;54.30
16388;DHT22;8303;53.446;9.988;2023-04-06T06:15:17;0.80;27.80
16388;DHT22;8303;53.446;9.988;2023-04-06T06:17:45;0.90;8.10
16388;DHT22;8303;53.446;9.988;2023-04-06T06:20:13;1.00;1.00
16388;DHT22;8303;53.446;9.988;2023-04-06T06:22:43;1.00;1.00
16388;DHT22;8303;53.446;9.988;2023-04-06T06:25:12;1.20;1.00
16388;DHT22;8303;53.446;9.988;2023-04-06T06:27:39;1.20;1.00
16388;DHT22;8303;53.446;9.988;2023-04-06T06:30:09;1.30;1.00
16388;DHT22;8303;53.446;9.988;2023-04-06T06:32:37;1.40;1.00
16388;DHT22;8303;53.446;9.988;2023-04-06T06:35:05;1.50;1.00
16388;DHT22;8303;53.446;9.988;2023-04-06T06:37:32;1.60;1.00
16388;DHT22;8303;53.446;9.988;2023-04-06T06:40:00;1.60;1.00
16388;DHT22;8303;53.446;9.988;2023-04-06T06:42:28;1.60;1.00
16388;DHT22;8303;53.446;9.988;2023-04-06T06:44:56;1.70;1.00
16388;DHT22;8303;53.446;9.988;2023-04-06T06:47:27;1.80;1.00
16388;DHT22;8303;53.446;9.988;2023-04-06T06:49:54;1.90;1.00
16388;DHT22;8303;53.446;9.988;2023-04-06T06:52:22;2.00;1.00
16388;DHT22;8303;53.446;9.988;2023-04-06T06:54:50;2.10;1.00
16388;DHT22;8303;53.446;9.988;2023-04-06T06:57:18;2.30;1.00
16388;DHT22;8303;53.446;9.988;2023-04-06T06:59:46;2.40;1.00
16388;DHT22;8303;53.446;9.988;2023-04-06T07:02:15;2.50;1.00
16388;DHT22;8303;53.446;9.988;2023-04-06T07:04:47;2.60;1.00
16388;DHT22;8303;53.446;9.988;2023-04-06T07:07:14;2.70;1.00
16388;DHT22;8303;53.446;9.988;2023-04-06T07:09:42;2.80;1.00
16388;DHT22;8303;53.446;9.988;2023-04-06T07:12:09;2.90;1.00
16388;DHT22;8303;53.446;9.988;2023-04-06T07:14:37;3.10;1.00
16388;DHT22;8303;53.446;9.988;2023-04-06T07:17:04;3.20;1.00
16388;DHT22;8303;53.446;9.988;2023-04-06T07:19:32;3.40;1.00
16388;DHT22;8303;53.446;9.988;2023-04-06T07:22:00;3.70;1.00
16388;DHT22;8303;53.446;9.988;2023-04-06T07:24:29;3.70;1.00
16388;DHT22;8303;53.446;9.988;2023-04-06T07:26:58;3.90;1.00
16388;DHT22;8303;53.446;9.988;2023-04-06T07:29:26;3.90;1.00
16388;DHT22;8303;53.446;9.988;2023-04-06T07:31:54;4.00;1.00
16388;DHT22;8303;53.446;9.988;2023-04-06T07:34:21;4.10;1.00
16388;DHT22;8303;53.446;9.988;2023-04-06T07:36:49;4.20;1.00
16388;DHT22;8303;53.446;9.988;2023-04-06T07:39:20;4.30;1.00
16388;DHT22;8303;53.446;9.988;2023-04-06T07:41:47;4.50;1.00
16388;DHT22;8303;53.446;9.988;2023-04-06T07:44:15;4.70;1.00
16388;DHT22;8303;53.446;9.988;2023-04-06T07:46:42;4.80;1.00
16388;DHT22;8303;53.446;9.988;2023-04-06T07:49:10;4.80;1.00
16388;DHT22;8303;53.446;9.988;2023-04-06T07:51:38;4.90;1.00
16388;DHT22;8303;53.446;9.988;2023-04-06T07:54:06;5.10;1.00
16388;DHT22;8303;53.446;9.988;2023-04-06T07:56:35;5.20;1.00
16388;DHT22;8303;53.446;9.988;2023-04-06T07:59:03;5.30;1.00
16388;DHT22;8303;53.446;9.988;2023-04-06T08:01:30;5.30;1.00
16388;DHT22;8303;53.446;9.988;2023-04-06T08:03:58;5.50;1.00
16388;DHT22;8303;53.446;9.988;2023-04-06T08:06:28;5.60;1.00
16388;DHT22;8303;53.446;9.988;2023-04-06T08:08:56;5.70;1.00
16388;DHT22;8303;53.446;9.988;2023-04-06T08:11:23;5.80;1.00
16388;DHT22;8303;53.446;9.988;2023-04-06T08:13:54;5.80;1.00
16388;DHT22;8303;53.446;9.988;2023-04-06T08:16:25;6.10;1.00
16388;DHT22;8303;53.446;9.988;2023-04-06T08:18:53;6.30;99.90
16388;DHT22;8303;53.446;9.988;2023-04-06T08:21:20;6.50;99.90
16388;DHT22;8303;53.446;9.988;2023-04-06T08:23:48;6.60;99.90
16388;DHT22;8303;53.446;9.988;2023-04-06T08:26:16;6.80;99.90
16388;DHT22;8303;53.446;9.988;2023-04-06T08:28:43;6.80;99.90
16388;DHT22;8303;53.446;9.988;2023-04-06T08:31:12;6.90;99.90
16388;DHT22;8303;53.446;9.988;2023-04-06T08:33:40;7.00;99.90
16388;DHT22;8303;53.446;9.988;2023-04-06T08:36:12;7.20;99.90
16388;DHT22;8303;53.446;9.988;2023-04-06T08:38:40;7.40;99.90
16388;DHT22;8303;53.446;9.988;2023-04-06T08:41:09;7.60;99.90
16388;DHT22;8303;53.446;9.988;2023-04-06T08:43:42;7.80;99.90
16388;DHT22;8303;53.446;9.988;2023-04-06T08:46:12;7.80;99.90
16388;DHT22;8303;53.446;9.988;2023-04-06T08:48:41;7.90;99.90
16388;DHT22;8303;53.446;9.988;2023-04-06T08:51:09;8.10;99.90
16388;DHT22;8303;53.446;9.988;2023-04-06T08:53:37;8.20;99.90
16388;DHT22;8303;53.446;9.988;2023-04-06T08:56:06;8.40;99.90
16388;DHT22;8303;53.446;9.988;2023-04-06T08:58:36;8.60;99.90
16388;DHT22;8303;53.446;9.988;2023-04-06T09:01:08;8.70;99.90
16388;DHT22;8303;53.446;9.988;2023-04-06T09:03:39;8.80;99.90
16388;DHT22;8303;53.446;9.988;2023-04-06T09:06:08;8.90;99.90
16388;DHT22;8303;53.446;9.988;2023-04-06T09:08:38;9.10;99.90
16388;DHT22;8303;53.446;9.988;2023-04-06T09:11:06;9.10;99.90
16388;DHT22;8303;53.446;9.988;2023-04-06T09:13:45;9.10;99.90
16388;DHT22;8303;53.446;9.988;2023-04-06T09:16:13;9.20;99.90
16388;DHT22;8303;53.446;9.988;2023-04-06T09:18:42;9.50;99.90
16388;DHT22;8303;53.446;9.988;2023-04-06T09:21:10;9.60;99.90
16388;DHT22;8303;53.446;9.988;2023-04-06T09:23:38;9.50;99.90
16388;DHT22;8303;53.446;9.988;2023-04-06T09:26:08;9.70;99.90
16388;DHT22;8303;53.446;9.988;2023-04-06T09:28:46;9.70;99.90
16388;DHT22;8303;53.446;9.988;2023-04-06T09:31:14;9.80;99.90
16388;DHT22;8303;53.446;9.988;2023-04-06T09:33:45;9.80;99.90
16388;DHT22;8303;53.446;9.988;2023-04-06T09:36:13;9.90;99.90
16388;DHT22;8303;53.446;9.988;2023-04-06T09:38:52;10.00;99.90
16388;DHT22;8303;53.446;9.988;2023-04-06T09:41:24;10.00;99.90
16388;DHT22;8303;53.446;9.988;2023-04-06T09:44:05;10.20;99.90
16388;DHT22;8303;53.446;9.988;2023-04-06T09:46:35;10.30;99.90
16388;DHT22;8303;53.446;9.988;2023-04-06T09:49:05;10.50;99.90
16388;DHT22;8303;53.446;9.988;2023-04-06T09:51:36;10.60;99.90
16388;DHT22;8303;53.446;9.988;2023-04-06T09:54:05;10.50;99.90
16388;DHT22;8303;53.446;9.988;2023-04-06T09:56:38;10.60;99.90
16388;DHT22;8303;53.446;9.988;2023-04-06T09:59:12;10.70;99.90
16388;DHT22;8303;53.446;9.988;2023-04-06T10:01:40;10.80;99.90
16388;DHT22;8303;53.446;9.988;2023-04-06T10:04:21;10.80;99.90
16388;DHT22;8303;53.446;9.988;2023-04-06T10:06:54;10.80;99.90
16388;DHT22;8303;53.446;9.988;2023-04-06T10:09:28;10.90;99.90
16388;DHT22;8303;53.446;9.988;2023-04-06T10:12:04;10.90;99.90
16388;DHT22;8303;53.446;9.988;2023-04-06T10:14:34;10.90;99.90
16388;DHT22;8303;53.446;9.988;2023-04-06T10:17:07;11.00;99.90
16388;DHT22;8303;53.446;9.988;2023-04-06T10:19:41;11.20;99.90
16388;DHT22;8303;53.446;9.988;2023-04-06T10:22:12;11.40;99.90
16388;DHT22;8303;53.446;9.988;2023-04-06T10:24:42;11.40;99.90
16388;DHT22;8303;53.446;9.988;2023-04-06T10:27:10;11.60;99.90
16388;DHT22;8303;53.446;9.988;2023-04-06T10:29:44;11.50;99.90
16388;DHT22;8303;53.446;9.988;2023-04-06T10:32:13;11.40;99.90
16388;DHT22;8303;53.446;9.988;2023-04-06T10:34:42;11.60;99.90
16388;DHT22;8303;53.446;9.988;2023-04-06T10:37:13;11.60;99.90
16388;DHT22;8303;53.446;9.988;2023-04-06T10:39:49;11.70;99.90
16388;DHT22;8303;53.446;9.988;2023-04-06T10:42:35;12.00;99.90
16388;DHT22;8303;53.446;9.988;2023-04-06T10:45:06;11.90;99.90
16388;DHT22;8303;53.446;9.988;2023-04-06T10:47:39;11.90;99.90
16388;DHT22;8303;53.446;9.988;2023-04-06T10:50:14;11.80;99.90
16388;DHT22;8303;53.446;9.988;2023-04-06T10:52:46;11.80;99.90
16388;DHT22;8303;53.446;9.988;2023-04-06T10:55:15;11.90;99.90
16388;DHT22;8303;53.446;9.988;2023-04-06T10:57:46;12.00;99.90
16388;DHT22;8303;53.446;9.988;2023-04-06T11:00:14;11.90;99.90
16388;DHT22;8303;53.446;9.988;2023-04-06T11:02:41;12.00;99.90
16388;DHT22;8303;53.446;9.988;2023-04-06T11:05:11;12.00;99.90
16388;DHT22;8303;53.446;9.988;2023-04-06T11:07:40;12.30;99.90
16388;DHT22;8303;53.446;9.988;2023-04-06T11:10:08;12.20;99.90
16388;DHT22;8303;53.446;9.988;2023-04-06T11:12:35;12.30;99.90
16388;DHT22;8303;53.446;9.988;2023-04-06T11:15:05;12.40;99.90
16388;DHT22;8303;53.446;9.988;2023-04-06T11:17:34;12.50;99.90
16388;DHT22;8303;53.446;9.988;2023-04-06T11:20:04;12.50;99.90
16388;DHT22;8303;53.446;9.988;2023-04-06T11:22:47;12.40;99.90
16388;DHT22;8303;53.446;9.988;2023-04-06T11:25:14;12.40;99.90
16388;DHT22;8303;53.446;9.988;2023-04-06T11:27:43;12.40;99.90
16388;DHT22;8303;53.446;9.988;2023-04-06T11:30:12;12.40;99.90
16388;DHT22;8303;53.446;9.988;2023-04-06T11:32:40;12.60;99.90
16388;DHT22;8303;53.446;9.988;2023-04-06T11:35:11;12.70;99.90
16388;DHT22;8303;53.446;9.988;2023-04-06T11:37:43;12.70;99.90
16388;DHT22;8303;53.446;9.988;2023-04-06T11:40:11;12.70;99.90
16388;DHT22;8303;53.446;9.988;2023-04-06T11:42:40;13.00;99.90
16388;DHT22;8303;53.446;9.988;2023-04-06T11:45:09;13.00;99.90
16388;DHT22;8303;53.446;9.988;2023-04-06T11:47:37;13.00;99.90
16388;DHT22;8303;53.446;9.988;2023-04-06T11:50:12;13.00;99.90
16388;DHT22;8303;53.446;9.988;2023-04-06T11:52:42;13.10;99.90
16388;DHT22;8303;53.446;9.988;2023-04-06T11:55:14;13.10;99.90
16388;DHT22;8303;53.446;9.988;2023-04-06T11:57:42;13.30;99.90
16388;DHT22;8303;53.446;9.988;2023-04-06T12:00:11;13.40;99.90
16388;DHT22;8303;53.446;9.988;2023-04-06T12:02:39;13.30;99.90
16388;DHT22;8303;53.446;9.988;2023-04-06T12:05:07;13.60;99.90
16388;DHT22;8303;53.446;9.988;2023-04-06T12:07:35;13.70;99.90
16388;DHT22;8303;53.446;9.988;2023-04-06T12:10:06;13.80;99.90
16388;DHT22;8303;53.446;9.988;2023-04-06T12:12:34;13.80;99.90
16388;DHT22;8303;53.446;9.988;2023-04-06T12:15:01;13.60;99.90
16388;DHT22;8303;53.446;9.988;2023-04-06T12:17:29;13.50;99.90
16388;DHT22;8303;53.446;9.988;2023-04-06T12:19:56;13.80;99.90
16388;DHT22;8303;53.446;9.988;2023-04-06T12:22:24;14.00;99.90
16388;DHT22;8303;53.446;9.988;2023-04-06T12:24:51;14.10;99.90
16388;DHT22;8303;53.446;9.988;2023-04-06T12:27:20;14.10;99.90
16388;DHT22;8303;53.446;9.988;2023-04-06T12:29:48;14.20;99.90
16388;DHT22;8303;53.446;9.988;2023-04-06T12:32:15;14.60;99.90
16388;DHT22;8303;53.446;9.988;2023-04-06T12:34:42;14.70;99.90
16388;DHT22;8303;53.446;9.988;2023-04-06T12:37:10;14.50;99.90
16388;DHT22;8303;53.446;9.988;2023-04-06T12:39:37;14.50;99.90
16388;DHT22;8303;53.446;9.988;2023-04-06T12:42:05;14.80;99.90
16388;DHT22;8303;53.446;9.988;2023-04-06T12:44:34;14.70;99.90
16388;DHT22;8303;53.446;9.988;2023-04-06T12:47:02;14.70;99.90
16388;DHT22;8303;53.446;9.988;2023-04-06T12:49:30;14.40;99.90
16388;DHT22;8303;53.446;9.988;2023-04-06T12:51:57;14.60;99.90
16388;DHT22;8303;53.446;9.988;2023-04-06T12:54:25;14.50;99.90
16388;DHT22;8303;53.446;9.988;2023-04-06T12:56:52;14.50;99.90
16388;DHT22;8303;53.446;9.988;2023-04-06T12:59:21;14.70;99.90
16388;DHT22;8303;53.446;9.988;2023-04-06T13:01:52;14.50;99.90
16388;DHT22;8303;53.446;9.988;2023-04-06T13:04:20;14.70;99.90
16388;DHT22;8303;53.446;9.988;2023-04-06T13:06:47;14.80;99.90
16388;DHT22;8303;53.446;9.988;2023-04-06T13:09:18;14.90;99.90
16388;DHT22;8303;53.446;9.988;2023-04-06T13:11:46;15.10;99.90
16388;DHT22;8303;53.446;9.988;2023-04-06T13:14:13;14.90;99.90
16388;DHT22;8303;53.446;9.988;2023-04-06T13:16:41;15.10;99.90
16388;DHT22;8303;53.446;9.988;2023-04-06T13:19:10;15.00;99.90
16388;DHT22;8303;53.446;9.988;2023-04-06T13:21:38;14.90;99.90
16388;DHT22;8303;53.446;9.988;2023-04-06T13:24:08;14.90;99.90
16388;DHT22;8303;53.446;9.988;2023-04-06T13:26:36;15.00;99.90
16388;DHT22;8303;53.446;9.988;2023-04-06T13:29:03;14.90;99.90
16388;DHT22;8303;53.446;9.988;2023-04-06T13:31:31;14.80;99.90
16388;DHT22;8303;53.446;9.988;2023-04-06T13:33:58;15.00;99.90
16388;DHT22;8303;53.446;9.988;2023-04-06T13:36:27;15.20;99.90
16388;DHT22;8303;53.446;9.988;2023-04-06T13:38:55;15.40;99.90
16388;DHT22;8303;53.446;9.988;2023-04-06T13:41:25;15.60;99.90
16388;DHT22;8303;53.446;9.988;2023-04-06T13:43:52;16.10;99.90
16388;DHT22;8303;53.446;9.988;2023-04-06T13:46:20;16.10;99.90
16388;DHT22;8303;53.446;9.988;2023-04-06T13:48:49;16.00;99.90
16388;DHT22;8303;53.446;9.988;2023-04-06T13:51:17;16.10;99.90
16388;DHT22;8303;53.446;9.988;2023-04-06T13:53:45;16.30;99.90
16388;DHT22;8303;53.446;9.988;2023-04-06T13:56:13;16.40;99.90
16388;DHT22;8303;53.446;9.988;2023-04-06T13:58:40;16.90;99.90
16388;DHT22;8303;53.446;9.988;2023-04-06T14:01:08;16.70;99.90
16388;DHT22;8303;53.446;9.988;2023-04-06T14:03:36;16.80;99.90
16388;DHT22;8303;53.446;9.988;2023-04-06T14:06:10;17.10;99.90
16388;DHT22;8303;53.446;9.988;2023-04-06T14:08:38;17.10;99.90
16388;DHT22;8303;53.446;9.988;2023-04-06T14:11:11;17.10;99.90
16388;DHT22;8303;53.446;9.988;2023-04-06T14:13:39;17.50;99.90
16388;DHT22;8303;53.446;9.988;2023-04-06T14:16:06;17.60;99.90
16388;DHT22;8303;53.446;9.988;2023-04-06T14:18:34;18.00;99.90
16388;DHT22;8303;53.446;9.988;2023-04-06T14:21:01;17.90;99.90
16388;DHT22;8303;53.446;9.988;2023-04-06T14:23:29;17.50;99.90
16388;DHT22;8303;53.446;9.988;2023-04-06T14:26:03;17.80;99.90
16388;DHT22;8303;53.446;9.988;2023-04-06T14:28:33;17.90;99.90
16388;DHT22;8303;53.446;9.988;2023-04-06T14:31:08;18.40;99.90
16388;DHT22;8303;53.446;9.988;2023-04-06T14:33:36;18.50;99.90
16388;DHT22;8303;53.446;9.988;2023-04-06T14:36:04;18.00;99.90
16388;DHT22;8303;53.446;9.988;2023-04-06T14:38:32;17.90;99.90
16388;DHT22;8303;53.446;9.988;2023-04-06T14:40:59;18.20;99.90
16388;DHT22;8303;53.446;9.988;2023-04-06T14:43:27;18.30;99.90
16388;DHT22;8303;53.446;9.988;2023-04-06T14:46:01;18.30;99.90
16388;DHT22;8303;53.446;9.988;2023-04-06T14:48:28;18.70;99.90
16388;DHT22;8303;53.446;9.988;2023-04-06T14:50:56;19.30;99.90
16388;DHT22;8303;53.446;9.988;2023-04-06T14:53:24;19.50;99.90
16388;DHT22;8303;53.446;9.988;2023-04-06T14:55:54;19.30;99.90
16388;DHT22;8303;53.446;9.988;2023-04-06T14:58:22;19.00;99.90
16388;DHT22;8303;53.446;9.988;2023-04-06T15:00:55;19.70;99.90
16388;DHT22;8303;53.446;9.988;2023-04-06T15:03:25;19.40;99.90
16388;DHT22;8303;53.446;9.988;2023-04-06T15:05:53;20.40;99.90
16388;DHT22;8303;53.446;9.988;2023-04-06T15:08:23;20.40;99.90
16388;DHT22;8303;53.446;9.988;2023-04-06T15:10:51;20.70;99.90
16388;DHT22;8303;53.446;9.988;2023-04-06T15:13:20;19.90;99.90
16388;DHT22;8303;53.446;9.988;2023-04-06T15:15:50;20.90;99.90
16388;DHT22;8303;53.446;9.988;2023-04-06T15:18:18;20.80;99.90
16388;DHT22;8303;53.446;9.988;2023-04-06T15:20:47;20.90;99.90
16388;DHT22;8303;53.446;9.988;2023-04-06T15:23:14;21.40;99.90
16388;DHT22;8303;53.446;9.988;2023-04-06T15:25:42;20.90;99.90
16388;DHT22;8303;53.446;9.988;2023-04-06T15:28:12;20.90;99.90
16388;DHT22;8303;53.446;9.988;2023-04-06T15:30:39;21.40;99.90
16388;DHT22;8303;53.446;9.988;2023-04-06T15:33:07;21.80;99.90
16388;DHT22;8303;53.446;9.988;2023-04-06T15:35:35;21.00;99.90
16388;DHT22;8303;53.446;9.988;2023-04-06T15:38:06;21.60;99.90
16388;DHT22;8303;53.446;9.988;2023-04-06T15:40:34;22.10;99.90
16388;DHT22;8303;53.446;9.988;2023-04-06T15:43:08;21.60;99.90
16388;DHT22;8303;53.446;9.988;2023-04-06T15:45:36;21.00;99.90
16388;DHT22;8303;53.446;9.988;2023-04-06T15:48:03;22.20;99.90
16388;DHT22;8303;53.446;9.988;2023-04-06T15:50:31;23.00;99.90
16388;DHT22;8303;53.446;9.988;2023-04-06T15:52:58;23.80;99.90
16388;DHT22;8303;53.446;9.988;2023-04-06T15:55:27;24.40;99.90
16388;DHT22;8303;53.446;9.988;2023-04-06T15:57:56;24.30;99.90
16388;DHT22;8303;53.446;9.988;2023-04-06T16:00:23;23.60;99.90
16388;DHT22;8303;53.446;9.988;2023-04-06T16:02:52;23.80;99.90
16388;DHT22;8303;53.446;9.988;2023-04-06T16:05:19;23.00;99.90
16388;DHT22;8303;53.446;9.988;2023-04-06T16:07:46;23.10;99.90
16388;DHT22;8303;53.446;9.988;2023-04-06T16:10:17;23.70;99.90
16388;DHT22;8303;53.446;9.988;2023-04-06T16:12:45;23.70;99.90
16388;DHT22;8303;53.446;9.988;2023-04-06T16:15:13;23.70;99.90
16388;DHT22;8303;53.446;9.988;2023-04-06T16:17:43;23.70;99.90
16388;DHT22;8303;53.446;9.988;2023-04-06T16:20:11;22.00;99.90
16388;DHT22;8303;53.446;9.988;2023-04-06T16:22:40;22.40;99.90
16388;DHT22;8303;53.446;9.988;2023-04-06T16:25:08;22.80;99.90
16388;DHT22;8303;53.446;9.988;2023-04-06T16:27:37;22.30;99.90
16388;DHT22;8303;53.446;9.988;2023-04-06T16:30:07;22.20;99.90
16388;DHT22;8303;53.446;9.988;2023-04-06T16:32:35;21.40;99.90
16388;DHT22;8303;53.446;9.988;2023-04-06T16:35:03;22.00;99.90
16388;DHT22;8303;53.446;9.988;2023-04-06T16:37:30;21.50;99.90
16388;DHT22;8303;53.446;9.988;2023-04-06T16:39:58;20.80;99.90
16388;DHT22;8303;53.446;9.988;2023-04-06T16:42:26;19.10;99.90
16388;DHT22;8303;53.446;9.988;2023-04-06T16:44:54;17.40;99.90
16388;DHT22;8303;53.446;9.988;2023-04-06T16:47:22;17.20;99.90
16388;DHT22;8303;53.446;9.988;2023-04-06T16:49:51;16.60;99.90
16388;DHT22;8303;53.446;9.988;2023-04-06T16:52:18;16.40;99.90
16388;DHT22;8303;53.446;9.988;2023-04-06T16:54:48;16.10;99.90
16388;DHT22;8303;53.446;9.988;2023-04-06T16:57:19;15.60;99.90
16388;DHT22;8303;53.446;9.988;2023-04-06T16:59:49;15.20;99.90
16388;DHT22;8303;53.446;9.988;2023-04-06T17:02:16;15.30;99.90
16388;DHT22;8303;53.446;9.988;2023-04-06T17:04:47;14.80;99.90
16388;DHT22;8303;53.446;9.988;2023-04-06T17:07:14;14.00;99.90
16388;DHT22;8303;53.446;9.988;2023-04-06T17:09:41;13.40;99.90
16388;DHT22;8303;53.446;9.988;2023-04-06T17:12:09;13.30;99.90
16388;DHT22;8303;53.446;9.988;2023-04-06T17:14:38;13.70;99.90
16388;DHT22;8303;53.446;9.988;2023-04-06T17:17:05;13.40;99.90
16388;DHT22;8303;53.446;9.988;2023-04-06T17:19:33;13.00;99.90
16388;DHT22;8303;53.446;9.988;2023-04-06T17:22:02;12.70;99.90
16388;DHT22;8303;53.446;9.988;2023-04-06T17:24:29;12.20;99.90
16388;DHT22;8303;53.446;9.988;2023-04-06T17:26:56;12.00;99.90
16388;DHT22;8303;53.446;9.988;2023-04-06T17:29:23;11.80;99.90
16388;DHT22;8303;53.446;9.988;2023-04-06T17:31:51;11.60;99.90
16388;DHT22;8303;53.446;9.988;2023-04-06T17:34:18;11.30;99.90
16388;DHT22;8303;53.446;9.988;2023-04-06T17:36:46;11.30;99.90
16388;DHT22;8303;53.446;9.988;2023-04-06T17:39:15;11.20;99.90
16388;DHT22;8303;53.446;9.988;2023-04-06T17:41:43;11.00;99.90
16388;DHT22;8303;53.446;9.988;2023-04-06T17:44:10;10.90;99.90
16388;DHT22;8303;53.446;9.988;2023-04-06T17:46:38;10.80;99.90
16388;DHT22;8303;53.446;9.988;2023-04-06T17:49:05;10.60;99.90
16388;DHT22;8303;53.446;9.988;2023-04-06T17:51:34;10.50;99.90
16388;DHT22;8303;53.446;9.988;2023-04-06T17:54:01;10.40;99.90
16388;DHT22;8303;53.446;9.988;2023-04-06T17:56:30;10.30;99.90
16388;DHT22;8303;53.446;9.988;2023-04-06T17:58:57;10.10;99.90
16388;DHT22;8303;53.446;9.988;2023-04-06T18:01:24;10.00;99.90
16388;DHT22;8303;53.446;9.988;2023-04-06T18:03:51;9.90;99.90
16388;DHT22;8303;53.446;9.988;2023-04-06T18:06:19;9.70;99.90
16388;DHT22;8303;53.446;9.988;2023-04-06T18:08:47;9.70;99.90
16388;DHT22;8303;53.446;9.988;2023-04-06T18:11:16;9.50;99.90
16388;DHT22;8303;53.446;9.988;2023-04-06T18:13:48;9.40;99.90
16388;DHT22;8303;53.446;9.988;2023-04-06T18:16:15;9.40;99.90
16388;DHT22;8303;53.446;9.988;2023-04-06T18:18:44;9.30;99.90
16388;DHT22;8303;53.446;9.988;2023-04-06T18:21:12;9.20;99.90
16388;DHT22;8303;53.446;9.988;2023-04-06T18:23:39;9.10;99.90
16388;DHT22;8303;53.446;9.988;2023-04-06T18:26:14;9.00;99.90
16388;DHT22;8303;53.446;9.988;2023-04-06T18:28:41;8.90;99.90
16388;DHT22;8303;53.446;9.988;2023-04-06T18:31:10;8.80;99.90
16388;DHT22;8303;53.446;9.988;2023-04-06T18:33:38;8.80;99.90
16388;DHT22;8303;53.446;9.988;2023-04-06T18:36:08;8.70;99.90
16388;DHT22;8303;53.446;9.988;2023-04-06T18:38:37;8.60;99.90
16388;DHT22;8303;53.446;9.988;2023-04-06T18:41:05;8.60;99.90
16388;DHT22;8303;53.446;9.988;2023-04-06T18:43:33;8.50;99.90
16388;DHT22;8303;53.446;9.988;2023-04-06T18:46:01;8.40;99.90
16388;DHT22;8303;53.446;9.988;2023-04-06T18:48:30;8.40;99.90
16388;DHT22;8303;53.446;9.988;2023-04-06T18:50:57;8.30;99.90
16388;DHT22;8303;53.446;9.988;2023-04-06T18:53:26;8.20;99.90
16388;DHT22;8303;53.446;9.988;2023-04-06T18:55:55;8.20;99.90
16388;DHT22;8303;53.446;9.988;2023-04-06T18:58:23;8.10;99.90
16388;DHT22;8303;53.446;9.988;2023-04-06T19:00:51;8.00;99.90
16388;DHT22;8303;53.446;9.988;2023-04-06T19:03:18;7.90;99.90
16388;DHT22;8303;53.446;9.988;2023-04-06T19:05:47;7.90;99.90
16388;DHT22;8303;53.446;9.988;2023-04-06T19:08:14;7.90;99.90
16388;DHT22;8303;53.446;9.988;2023-04-06T19:10:41;7.90;99.90
16388;DHT22;8303;53.446;9.988;2023-04-06T19:13:11;7.80;99.90
16388;DHT22;8303;53.446;9.988;2023-04-06T19:15:39;7.80;99.90
16388;DHT22;8303;53.446;9.988;2023-04-06T19:18:07;7.80;99.90
16388;DHT22;8303;53.446;9.988;2023-04-06T19:20:35;7.80;99.90
16388;DHT22;8303;53.446;9.988;2023-04-06T19:23:04;7.70;99.90
16388;DHT22;8303;53.446;9.988;2023-04-06T19:25:33;7.70;99.90
16388;DHT22;8303;53.446;9.988;2023-04-06T19:28:00;7.70;99.90
16388;DHT22;8303;53.446;9.988;2023-04-06T19:30:28;7.60;99.90
16388;DHT22;8303;53.446;9.988;2023-04-06T19:32:55;7.40;99.90
16388;DHT22;8303;53.446;9.988;2023-04-06T19:35:25;7.40;99.90
16388;DHT22;8303;53.446;9.988;2023-04-06T19:37:53;7.30;99.90
16388;DHT22;8303;53.446;9.988;2023-04-06T19:40:22;7.20;99.90
16388;DHT22;8303;53.446;9.988;2023-04-06T19:42:49;7.20;99.90
16388;DHT22;8303;53.446;9.988;2023-04-06T19:45:19;7.10;99.90
16388;DHT22;8303;53.446;9.988;2023-04-06T19:47:46;6.80;99.90
16388;DHT22;8303;53.446;9.988;2023-04-06T19:50:14;6.90;99.90
16388;DHT22;8303;53.446;9.988;2023-04-06T19:52:41;6.90;99.90
16388;DHT22;8303;53.446;9.988;2023-04-06T19:55:09;6.90;99.90
16388;DHT22;8303;53.446;9.988;2023-04-06T19:57:38;6.80;99.90
16388;DHT22;8303;53.446;9.988;2023-04-06T20:00:06;6.80;99.90
16388;DHT22;8303;53.446;9.988;2023-04-06T20:02:34;6.80;99.90
16388;DHT22;8303;53.446;9.988;2023-04-06T20:05:01;6.70;99.90
16388;DHT22;8303;53.446;9.988;2023-04-06T20:07:29;6.70;99.90
16388;DHT22;8303;53.446;9.988;2023-04-06T20:09:59;6.70;99.90
16388;DHT22;8303;53.446;9.988;2023-04-06T20:12:28;6.60;99.90
16388;DHT22;8303;53.446;9.988;2023-04-06T20:14:57;6.60;99.90
16388;DHT22;8303;53.446;9.988;2023-04-06T20:17:24;6.60;99.90
16388;DHT22;8303;53.446;9.988;2023-04-06T20:19:52;6.50;99.90
16388;DHT22;8303;53.446;9.988;2023-04-06T20:22:20;6.50;99.90
16388;DHT22;8303;53.446;9.988;2023-04-06T20:24:47;6.50;99.90
16388;DHT22;8303;53.446;9.988;2023-04-06T20:27:15;6.50;99.90
16388;DHT22;8303;53.446;9.988;2023-04-06T20:29:43;6.30;99.90
